Time;durP1;ratioP1;P1;durP2;ratioP2;P2;SDS_P1;SDS_P2;PMS_P1;PMS_P2;Temp;Humidity;BMP_temperature;BMP_pressure;BME280_temperature;BME280_humidity;BME280_pressure;Samples;Min_cycle;Max_cycle;Signal;HPM_P1;HPM_P2
2022/11/14 00:01:58;;;;;;;3.22;1.50;;;7.00;85.30;;;;;;4975595;28;20415;-73
2022/11/14 00:04:24;;;;;;;2.85;1.63;;;6.90;85.30;;;;;;4992667;28;20046;-74
2022/11/14 00:06:50;;;;;;;3.05;1.60;;;6.90;85.30;;;;;;4993172;28;20093;-73
2022/11/14 00:09:15;;;;;;;2.25;1.40;;;6.90;85.40;;;;;;4975320;28;20074;-73
2022/11/14 00:11:41;;;;;;;3.08;1.75;;;6.80;85.50;;;;;;4992658;28;20438;-73
2022/11/14 00:14:08;;;;;;;3.53;1.55;;;6.70;85.40;;;;;;4958602;28;20574;-73
2022/11/14 00:16:33;;;;;;;2.60;1.45;;;6.80;85.60;;;;;;4975280;28;20034;-73
2022/11/14 00:18:59;;;;;;;3.42;1.77;;;6.70;85.60;;;;;;4975706;28;20041;-73
2022/11/14 00:21:25;;;;;;;3.20;1.70;;;6.70;85.60;;;;;;4993093;28;20057;-73
2022/11/14 00:23:50;;;;;;;2.22;1.40;;;6.70;85.70;;;;;;4975213;28;20039;-73
2022/11/14 00:26:16;;;;;;;2.15;1.33;;;6.50;85.60;;;;;;4975054;28;20045;-73
2022/11/14 00:28:41;;;;;;;2.53;1.48;;;6.60;85.70;;;;;;4974948;28;20132;-73
2022/11/14 00:31:09;;;;;;;3.08;1.73;;;6.60;85.70;;;;;;4974037;28;20041;-73
2022/11/14 00:33:34;;;;;;;2.60;1.50;;;6.60;85.70;;;;;;4992458;28;20042;-73
2022/11/14 00:36:00;;;;;;;3.17;1.67;;;6.50;85.70;;;;;;4992860;28;20387;-73
2022/11/14 00:38:25;;;;;;;2.28;1.42;;;6.50;85.70;;;;;;4992352;28;20034;-73
2022/11/14 00:40:51;;;;;;;3.15;1.67;;;6.40;85.70;;;;;;4974964;28;20081;-73
2022/11/14 00:43:17;;;;;;;3.88;1.90;;;6.40;85.80;;;;;;4992690;28;20076;-73
2022/11/14 00:45:44;;;;;;;3.13;1.50;;;6.40;85.90;;;;;;4992383;28;20122;-72
2022/11/14 00:48:10;;;;;;;3.13;1.58;;;6.40;85.90;;;;;;4974680;28;20062;-73
2022/11/14 00:50:36;;;;;;;3.25;1.75;;;6.40;85.90;;;;;;4975206;28;20042;-73
2022/11/14 00:53:02;;;;;;;3.55;1.60;;;6.40;86.00;;;;;;4992181;28;20050;-72
2022/11/14 00:55:28;;;;;;;2.72;1.70;;;6.30;86.00;;;;;;4974528;28;20114;-72
2022/11/14 00:57:54;;;;;;;3.47;1.65;;;6.40;86.10;;;;;;4992195;28;20070;-72
2022/11/14 01:00:19;;;;;;;2.53;1.70;;;6.30;86.00;;;;;;4974794;28;20037;-73
2022/11/14 01:02:45;;;;;;;3.20;1.90;;;6.30;86.10;;;;;;4974550;28;20118;-72
2022/11/14 01:05:10;;;;;;;3.38;1.73;;;6.20;86.10;;;;;;4992389;28;20936;-73
2022/11/14 01:07:36;;;;;;;4.57;2.00;;;6.20;86.20;;;;;;4992379;28;20475;-73
2022/11/14 01:10:02;;;;;;;3.78;1.92;;;6.20;86.20;;;;;;4974342;28;20067;-73
2022/11/14 01:12:28;;;;;;;3.80;1.60;;;6.20;86.20;;;;;;4992238;28;20485;-73
2022/11/14 01:14:53;;;;;;;3.35;1.90;;;6.10;86.20;;;;;;4992099;28;20034;-73
2022/11/14 01:17:19;;;;;;;3.22;1.75;;;6.10;86.30;;;;;;4991776;28;20559;-73
2022/11/14 01:19:44;;;;;;;2.58;1.60;;;6.10;86.30;;;;;;4992124;28;20039;-73
2022/11/14 01:22:10;;;;;;;3.40;1.73;;;6.00;86.30;;;;;;4974200;28;20097;-73
2022/11/14 01:24:36;;;;;;;3.08;1.67;;;6.00;86.40;;;;;;4992148;28;20381;-73
2022/11/14 01:27:02;;;;;;;4.30;2.17;;;6.00;86.40;;;;;;4991578;28;20041;-73
2022/11/14 01:29:27;;;;;;;3.10;1.70;;;6.00;86.40;;;;;;4992178;28;20116;-73
2022/11/14 01:31:53;;;;;;;3.97;1.98;;;6.00;86.50;;;;;;4991953;28;20041;-73
2022/11/14 01:34:19;;;;;;;3.63;1.70;;;6.00;86.50;;;;;;4992122;28;20062;-73
2022/11/14 01:36:44;;;;;;;4.13;2.10;;;6.00;86.50;;;;;;4974710;28;20042;-73
2022/11/14 01:39:10;;;;;;;3.97;1.88;;;5.90;86.50;;;;;;4974712;28;20364;-73
2022/11/14 01:41:36;;;;;;;2.95;1.65;;;5.90;86.50;;;;;;4974677;28;20077;-73
2022/11/14 01:44:01;;;;;;;4.07;1.70;;;5.80;86.50;;;;;;4994656;28;20046;-73
2022/11/14 01:46:31;;;;;;;2.78;1.67;;;5.80;86.60;;;;;;4995418;28;20097;-73
2022/11/14 01:49:19;;;;;;;4.20;1.92;;;5.90;86.70;;;;;;4994809;28;20046;-72
2022/11/14 01:51:48;;;;;;;3.83;1.65;;;5.80;86.70;;;;;;4977514;28;20129;-73
2022/11/14 01:54:24;;;;;;;3.42;1.60;;;5.80;86.70;;;;;;4977771;28;20039;-72
2022/11/14 01:56:55;;;;;;;3.53;1.65;;;5.70;86.70;;;;;;4995247;28;20425;-72
2022/11/14 01:59:24;;;;;;;3.05;1.63;;;5.70;86.80;;;;;;4994955;28;20121;-73
2022/11/14 02:01:52;;;;;;;2.33;1.48;;;5.80;86.90;;;;;;4995180;28;20039;-73
2022/11/14 02:04:25;;;;;;;3.70;1.67;;;5.70;86.90;;;;;;4994639;28;20038;-73
2022/11/14 02:06:55;;;;;;;2.42;1.38;;;5.60;86.90;;;;;;4995049;28;20042;-73
2022/11/14 02:09:21;;;;;;;2.95;1.35;;;5.60;86.90;;;;;;4977045;28;20849;-72
2022/11/14 02:11:48;;;;;;;2.92;1.65;;;5.60;87.00;;;;;;4961152;28;20389;-72
2022/11/14 02:14:14;;;;;;;2.88;1.63;;;5.60;87.00;;;;;;4977535;28;20038;-74
2022/11/14 02:16:40;;;;;;;3.20;1.63;;;5.60;87.00;;;;;;4977666;28;20031;-72
2022/11/14 02:19:07;;;;;;;2.88;1.40;;;5.50;87.00;;;;;;4961063;28;20042;-72
2022/11/14 02:21:32;;;;;;;3.08;1.75;;;5.50;87.10;;;;;;4994519;28;20039;-73
2022/11/14 02:23:58;;;;;;;2.85;1.65;;;5.50;87.70;;;;;;4994867;28;20372;-72
2022/11/14 02:26:23;;;;;;;3.85;2.00;;;5.50;87.20;;;;;;4994383;28;20060;-73
2022/11/14 02:28:50;;;;;;;2.55;1.50;;;5.50;87.20;;;;;;4994290;28;20101;-72
2022/11/14 02:31:16;;;;;;;3.13;1.60;;;5.50;87.20;;;;;;4994174;28;20046;-73
2022/11/14 02:33:42;;;;;;;3.65;1.58;;;5.40;87.10;;;;;;4994355;28;20062;-73
2022/11/14 02:36:08;;;;;;;3.72;1.88;;;5.50;87.20;;;;;;4994619;28;20080;-72
2022/11/14 02:38:34;;;;;;;2.88;1.65;;;5.40;87.20;;;;;;4994550;28;20427;-73
2022/11/14 02:41:00;;;;;;;3.28;1.80;;;5.40;87.30;;;;;;4994235;28;20088;-72
2022/11/14 02:43:26;;;;;;;4.05;1.90;;;5.40;87.20;;;;;;4977169;28;20038;-72
2022/11/14 02:45:52;;;;;;;3.30;1.88;;;5.40;87.30;;;;;;4994412;28;20046;-73
2022/11/14 02:48:17;;;;;;;2.53;1.27;;;5.50;87.40;;;;;;4976546;28;20042;-72
2022/11/14 02:50:43;;;;;;;3.42;1.90;;;5.30;87.30;;;;;;4976477;28;20038;-73
2022/11/14 02:53:09;;;;;;;4.10;1.83;;;5.40;87.40;;;;;;4994019;28;20382;-72
2022/11/14 02:55:35;;;;;;;3.15;1.67;;;5.30;87.30;;;;;;4992936;28;20035;-73
2022/11/14 02:58:00;;;;;;;4.25;1.88;;;5.30;87.30;;;;;;4993840;28;20501;-73
2022/11/14 03:00:26;;;;;;;3.08;1.70;;;5.30;87.30;;;;;;4994224;28;20085;-73
2022/11/14 03:02:52;;;;;;;4.07;2.00;;;5.30;87.30;;;;;;4993774;28;20035;-73
2022/11/14 03:05:18;;;;;;;4.15;1.90;;;5.20;87.30;;;;;;4994007;28;20573;-72
2022/11/14 03:07:44;;;;;;;3.05;1.77;;;5.20;87.40;;;;;;4976639;28;20129;-73
2022/11/14 03:10:10;;;;;;;3.03;1.75;;;5.30;87.40;;;;;;4993987;28;20088;-73
2022/11/14 03:12:36;;;;;;;2.95;1.60;;;5.20;87.40;;;;;;4993959;28;20027;-72
2022/11/14 03:15:02;;;;;;;2.78;1.33;;;5.20;87.30;;;;;;4994001;28;20022;-72
2022/11/14 03:17:31;;;;;;;3.33;1.65;;;5.20;87.40;;;;;;4976799;28;20042;-72
2022/11/14 03:19:56;;;;;;;2.92;1.40;;;5.20;87.40;;;;;;4959833;28;20077;-72
2022/11/14 03:22:22;;;;;;;3.35;1.70;;;5.20;87.50;;;;;;4975932;28;20038;-73
2022/11/14 03:24:48;;;;;;;2.75;1.50;;;5.20;87.50;;;;;;4975982;28;20039;-73
2022/11/14 03:27:13;;;;;;;4.35;2.22;;;5.10;87.50;;;;;;4993820;28;20481;-73
2022/11/14 03:29:39;;;;;;;2.58;1.40;;;5.10;87.50;;;;;;4975817;28;20084;-72
2022/11/14 03:32:04;;;;;;;2.85;1.58;;;5.20;87.50;;;;;;4975815;28;20074;-72
2022/11/14 03:34:30;;;;;;;3.35;1.50;;;5.10;87.50;;;;;;4993239;28;20097;-73
2022/11/14 03:36:56;;;;;;;3.63;1.50;;;5.10;87.50;;;;;;4976156;28;20097;-73
2022/11/14 03:39:21;;;;;;;2.92;1.50;;;5.10;87.60;;;;;;4975729;28;20562;-73
2022/11/14 03:41:47;;;;;;;3.03;1.60;;;5.10;87.50;;;;;;4993667;28;20045;-73
2022/11/14 03:44:12;;;;;;;2.47;1.20;;;5.20;87.70;;;;;;4976036;28;20352;-73
2022/11/14 03:46:38;;;;;;;2.88;1.45;;;5.10;87.50;;;;;;4975475;28;20120;-73
2022/11/14 03:49:04;;;;;;;2.90;1.50;;;5.10;87.50;;;;;;4975971;28;20128;-73
2022/11/14 03:51:29;;;;;;;3.17;1.70;;;5.10;87.50;;;;;;4975989;28;20041;-73
2022/11/14 03:53:55;;;;;;;3.45;1.52;;;5.10;87.50;;;;;;4993457;28;20035;-73
2022/11/14 03:56:21;;;;;;;3.75;1.73;;;5.10;87.60;;;;;;4993351;28;20058;-73
2022/11/14 03:58:46;;;;;;;2.55;1.40;;;5.00;87.50;;;;;;4992805;28;20050;-73
2022/11/14 04:01:12;;;;;;;2.67;1.45;;;5.00;87.60;;;;;;4993244;28;20101;-72
2022/11/14 04:03:37;;;;;;;2.35;1.40;;;5.00;87.60;;;;;;4992659;28;20092;-72
2022/11/14 04:06:03;;;;;;;3.47;1.58;;;4.90;87.60;;;;;;4992321;28;20034;-72
2022/11/14 04:08:29;;;;;;;2.97;1.50;;;5.00;87.70;;;;;;4993142;28;20520;-73
2022/11/14 04:10:55;;;;;;;4.60;1.73;;;4.90;87.70;;;;;;4993193;28;20042;-72
2022/11/14 04:13:21;;;;;;;2.70;1.30;;;5.00;87.80;;;;;;4959272;28;20475;-73
2022/11/14 04:15:52;;;;;;;2.85;1.45;;;4.90;87.80;;;;;;4958902;28;20042;-72
2022/11/14 04:18:18;;;;;;;3.55;1.50;;;4.90;87.80;;;;;;4992788;28;20046;-73
2022/11/14 04:20:43;;;;;;;3.38;1.70;;;4.90;87.90;;;;;;4992699;28;20157;-73
2022/11/14 04:23:09;;;;;;;3.10;1.50;;;4.90;87.90;;;;;;4993073;28;20038;-73
2022/11/14 04:25:35;;;;;;;2.22;1.10;;;4.80;87.90;;;;;;4958753;28;20096;-73
2022/11/14 04:28:00;;;;;;;3.25;1.70;;;4.80;87.90;;;;;;4992831;28;20115;-73
2022/11/14 04:30:26;;;;;;;2.92;1.45;;;4.90;88.00;;;;;;4975561;28;20042;-73
2022/11/14 04:32:51;;;;;;;3.45;1.60;;;4.80;88.00;;;;;;4992826;28;20041;-72
2022/11/14 04:35:18;;;;;;;4.05;1.90;;;4.80;88.00;;;;;;4992614;28;20038;-73
2022/11/14 04:37:44;;;;;;;2.97;1.30;;;4.80;88.00;;;;;;4974790;28;20034;-72
2022/11/14 04:40:10;;;;;;;3.88;1.70;;;4.80;88.00;;;;;;4992623;28;20035;-73
2022/11/14 04:42:36;;;;;;;3.97;1.40;;;4.70;88.00;;;;;;4974747;28;20045;-73
2022/11/14 04:45:01;;;;;;;3.72;1.60;;;4.70;88.00;;;;;;4992169;28;20035;-73
2022/11/14 04:47:27;;;;;;;3.00;1.40;;;4.70;88.10;;;;;;4974805;28;20034;-72
2022/11/14 04:49:53;;;;;;;2.28;1.20;;;4.70;88.10;;;;;;4958967;28;20399;-73
2022/11/14 04:52:18;;;;;;;3.47;1.50;;;4.70;88.00;;;;;;4974693;28;20094;-73
2022/11/14 04:54:44;;;;;;;2.97;1.58;;;4.60;88.00;;;;;;4974692;28;20546;-73
2022/11/14 04:57:09;;;;;;;2.95;1.58;;;4.60;88.00;;;;;;4975226;28;20030;-73
2022/11/14 04:59:35;;;;;;;3.55;1.60;;;4.70;88.10;;;;;;4974644;28;20046;-73
2022/11/14 05:02:01;;;;;;;3.42;1.80;;;4.70;88.10;;;;;;4992591;28;20121;-73
2022/11/14 05:04:26;;;;;;;3.08;1.40;;;4.60;88.10;;;;;;4975165;28;20402;-73
2022/11/14 05:06:52;;;;;;;4.32;1.92;;;4.70;88.10;;;;;;4992300;28;20035;-73
2022/11/14 05:09:17;;;;;;;2.70;1.65;;;4.60;88.10;;;;;;4974876;28;20050;-73
2022/11/14 05:11:43;;;;;;;2.67;1.48;;;4.70;88.20;;;;;;4991510;28;20041;-73
2022/11/14 05:14:08;;;;;;;3.03;1.40;;;4.60;88.20;;;;;;4992681;28;20043;-73
2022/11/14 05:16:34;;;;;;;4.18;1.45;;;4.60;88.30;;;;;;4992766;28;20034;-73
2022/11/14 05:19:00;;;;;;;2.40;1.23;;;4.50;88.20;;;;;;4977997;28;20087;-73
2022/11/14 05:21:26;;;;;;;2.33;1.33;;;4.50;88.30;;;;;;4978095;28;20104;-73
2022/11/14 05:23:52;;;;;;;2.63;1.30;;;4.50;88.30;;;;;;4978742;28;20133;-73
2022/11/14 05:26:18;;;;;;;2.75;1.48;;;4.50;88.40;;;;;;4978610;28;20136;-72
2022/11/14 05:28:43;;;;;;;2.67;1.38;;;4.40;88.30;;;;;;4995572;28;20040;-73
2022/11/14 05:31:13;;;;;;;2.67;1.27;;;4.40;88.40;;;;;;4995606;28;20129;-73
2022/11/14 05:33:39;;;;;;;2.83;1.40;;;4.50;88.50;;;;;;4978614;28;20048;-73
2022/11/14 05:36:10;;;;;;;3.03;1.40;;;4.40;88.50;;;;;;4978206;28;20546;-72
2022/11/14 05:38:36;;;;;;;2.13;1.13;;;4.40;88.50;;;;;;4995899;28;20062;-73
2022/11/14 05:41:08;;;;;;;2.90;1.38;;;4.40;88.50;;;;;;4978172;28;20630;-73
2022/11/14 05:43:34;;;;;;;2.15;1.27;;;4.30;88.50;;;;;;4995355;28;20078;-73
2022/11/14 05:46:03;;;;;;;1.88;1.17;;;4.30;88.60;;;;;;4995240;28;20129;-73
2022/11/14 05:48:29;;;;;;;1.70;1.10;;;4.30;88.60;;;;;;4995596;28;20047;-73
2022/11/14 05:50:56;;;;;;;2.35;1.20;;;4.40;88.60;;;;;;4961622;28;20065;-72
2022/11/14 05:53:21;;;;;;;2.95;1.33;;;4.30;88.70;;;;;;4978397;28;20038;-72
2022/11/14 05:55:47;;;;;;;2.97;1.38;;;4.30;88.70;;;;;;4961499;28;20431;-73
2022/11/14 05:58:12;;;;;;;2.20;1.23;;;4.20;88.60;;;;;;4977539;28;20506;-72
2022/11/14 06:00:38;;;;;;;3.30;1.60;;;4.20;88.60;;;;;;4995568;28;20035;-72
2022/11/14 06:03:04;;;;;;;2.40;1.00;;;4.20;88.70;;;;;;4961353;28;20129;-72
2022/11/14 06:05:29;;;;;;;2.55;1.20;;;4.10;88.70;;;;;;4977395;28;20118;-73
2022/11/14 06:07:57;;;;;;;2.55;1.23;;;4.20;88.70;;;;;;4995125;28;20054;-73
2022/11/14 06:10:22;;;;;;;2.13;1.27;;;4.20;88.70;;;;;;4995306;28;20109;-73
2022/11/14 06:12:48;;;;;;;3.53;1.60;;;4.10;88.70;;;;;;4977400;28;20065;-72
2022/11/14 06:15:14;;;;;;;2.97;1.40;;;4.20;88.70;;;;;;4995102;28;20044;-73
2022/11/14 06:17:39;;;;;;;2.30;1.30;;;4.10;88.70;;;;;;4977948;28;20479;-72
2022/11/14 06:20:06;;;;;;;2.45;1.20;;;4.10;88.70;;;;;;4994722;28;20034;-73
2022/11/14 06:22:32;;;;;;;3.05;1.55;;;4.10;89.30;;;;;;4975366;28;20047;-73
2022/11/14 06:24:57;;;;;;;2.15;1.15;;;4.20;88.80;;;;;;4977137;28;20398;-73
2022/11/14 06:27:23;;;;;;;2.95;1.38;;;4.00;88.70;;;;;;4995054;28;20037;-73
2022/11/14 06:29:49;;;;;;;2.88;1.48;;;4.10;88.70;;;;;;4977417;28;20439;-73
2022/11/14 06:32:14;;;;;;;2.80;1.20;;;4.10;88.80;;;;;;4977526;28;20027;-74
2022/11/14 06:34:40;;;;;;;2.75;1.17;;;4.10;88.80;;;;;;4977667;28;20348;-73
2022/11/14 06:37:05;;;;;;;2.47;1.20;;;4.00;88.70;;;;;;4977169;28;20031;-72
2022/11/14 06:39:31;;;;;;;1.65;0.98;;;4.00;88.80;;;;;;4994902;28;20125;-73
2022/11/14 06:41:57;;;;;;;2.70;1.45;;;4.00;88.70;;;;;;4977559;28;20038;-73
2022/11/14 06:44:22;;;;;;;2.72;1.13;;;4.00;88.80;;;;;;4994423;28;20039;-73
2022/11/14 06:46:48;;;;;;;3.75;1.55;;;3.90;88.70;;;;;;4977650;28;20053;-73
2022/11/14 06:49:14;;;;;;;2.55;1.27;;;4.00;88.80;;;;;;4994739;28;20046;-73
2022/11/14 06:51:39;;;;;;;2.58;1.30;;;4.10;88.90;;;;;;4994430;28;20125;-73
2022/11/14 06:54:05;;;;;;;3.40;1.50;;;4.00;88.80;;;;;;4976856;28;20035;-73
2022/11/14 06:56:31;;;;;;;1.67;0.90;;;4.00;88.80;;;;;;4994252;28;20180;-73
2022/11/14 06:58:56;;;;;;;2.25;1.20;;;4.00;88.80;;;;;;4976645;28;20046;-73
2022/11/14 07:01:24;;;;;;;2.95;1.17;;;3.90;88.70;;;;;;4976589;28;20038;-73
2022/11/14 07:03:51;;;;;;;2.25;1.20;;;3.90;88.80;;;;;;4977077;28;20502;-72
2022/11/14 07:06:22;;;;;;;2.95;1.40;;;4.00;88.90;;;;;;4976620;28;20049;-73
2022/11/14 07:08:48;;;;;;;2.22;1.05;;;3.90;88.80;;;;;;4993945;28;20126;-73
2022/11/14 07:11:24;;;;;;;2.67;1.15;;;3.90;88.80;;;;;;4976659;28;20125;-73
2022/11/14 07:13:54;;;;;;;2.35;1.30;;;3.90;88.80;;;;;;4993774;28;20080;-73
2022/11/14 07:16:23;;;;;;;1.58;1.00;;;3.90;88.80;;;;;;4994279;28;20065;-73
2022/11/14 07:18:48;;;;;;;2.25;1.23;;;3.90;88.70;;;;;;4976189;28;20046;-73
2022/11/14 07:21:14;;;;;;;1.50;0.90;;;3.90;88.70;;;;;;4993755;28;20088;-73
2022/11/14 07:23:40;;;;;;;2.15;1.15;;;3.90;88.70;;;;;;4976266;28;20089;-72
2022/11/14 07:26:09;;;;;;;2.45;1.50;;;3.90;88.70;;;;;;4993597;28;20045;-73
2022/11/14 07:28:36;;;;;;;2.03;1.15;;;3.90;88.70;;;;;;4975906;28;20436;-73
2022/11/14 07:31:03;;;;;;;2.42;1.23;;;3.90;88.60;;;;;;4976260;28;20043;-73
2022/11/14 07:33:30;;;;;;;2.17;1.20;;;4.00;88.70;;;;;;4993559;28;20051;-72
2022/11/14 07:35:55;;;;;;;2.50;1.15;;;3.90;88.60;;;;;;4993615;28;20035;-73
2022/11/14 07:38:21;;;;;;;1.63;1.00;;;4.00;88.60;;;;;;4976197;28;20053;-73
2022/11/14 07:41:05;;;;;;;1.90;1.10;;;4.00;88.60;;;;;;4993356;28;20034;-72
2022/11/14 07:43:30;;;;;;;2.28;1.10;;;4.00;88.60;;;;;;4976120;28;20046;-73
2022/11/14 07:46:07;;;;;;;2.13;1.10;;;4.00;88.50;;;;;;4975946;28;20031;-73
2022/11/14 07:48:59;;;;;;;2.10;1.13;;;4.00;88.50;;;;;;4976429;28;20100;-73
2022/11/14 07:51:25;;;;;;;1.90;1.05;;;4.10;88.50;;;;;;4976797;28;20173;-72
2022/11/14 07:53:52;;;;;;;2.25;1.08;;;4.00;88.40;;;;;;4975237;28;20563;-72
2022/11/14 07:56:25;;;;;;;2.15;1.25;;;4.10;88.40;;;;;;4959789;28;20035;-73
2022/11/14 07:58:51;;;;;;;2.78;1.25;;;4.10;88.40;;;;;;4993075;28;20042;-73
2022/11/14 08:01:16;;;;;;;2.13;1.20;;;4.10;88.30;;;;;;4976097;28;20490;-73
2022/11/14 08:03:43;;;;;;;2.20;1.23;;;4.10;88.30;;;;;;4975595;28;20108;-73
2022/11/14 08:06:11;;;;;;;2.20;1.08;;;4.20;88.30;;;;;;4975800;28;20038;-73
2022/11/14 08:08:37;;;;;;;1.85;1.23;;;4.20;88.20;;;;;;4993142;28;20042;-73
2022/11/14 08:11:03;;;;;;;2.67;1.10;;;4.30;88.20;;;;;;4993495;28;20048;-73
2022/11/14 08:13:32;;;;;;;1.95;1.02;;;4.20;88.10;;;;;;4959401;28;20132;-73
2022/11/14 08:15:59;;;;;;;1.60;1.00;;;4.30;88.10;;;;;;4975811;28;20178;-74
2022/11/14 08:18:25;;;;;;;2.88;1.35;;;4.40;88.10;;;;;;4959363;28;20053;-73
2022/11/14 08:20:50;;;;;;;4.15;1.70;;;4.40;88.00;;;;;;4992841;28;20503;-73
2022/11/14 08:23:16;;;;;;;3.75;1.70;;;4.40;88.00;;;;;;4992689;28;20494;-73
2022/11/14 08:25:42;;;;;;;2.25;1.30;;;4.40;87.90;;;;;;4959224;28;20042;-74
2022/11/14 08:28:08;;;;;;;3.17;1.30;;;4.50;87.90;;;;;;4975273;28;20126;-74
2022/11/14 08:30:34;;;;;;;2.20;1.40;;;4.50;87.80;;;;;;4975191;28;20549;-73
2022/11/14 08:33:24;;;;;;;3.33;1.30;;;4.50;87.80;;;;;;4975292;28;20039;-72
2022/11/14 08:59:28;;;;;;;2.63;1.42;;;4.80;87.20;;;;;;4717958;30;20115;-74
2022/11/14 09:03:07;;;;;;;2.05;1.02;;;4.90;87.10;;;;;;4676926;30;20050;-72
2022/11/14 09:22:07;;;;;;;1.00;0.70;;;5.00;86.90;;;;;;6268956;22;20117;-72
2022/11/14 09:24:33;;;;;;;2.03;1.08;;;5.20;86.60;;;;;;6230672;22;20003;-72
2022/11/14 09:26:58;;;;;;;1.52;0.90;;;5.30;86.60;;;;;;6256610;22;20007;-73
2022/11/14 09:29:24;;;;;;;2.25;1.30;;;5.30;86.60;;;;;;6256268;22;20016;-73
2022/11/14 09:31:50;;;;;;;2.20;1.20;;;5.30;86.60;;;;;;6230277;22;20064;-73
2022/11/14 09:34:16;;;;;;;2.05;1.00;;;5.40;86.60;;;;;;6230317;22;20054;-74
2022/11/14 09:36:42;;;;;;;2.13;1.13;;;5.40;86.60;;;;;;6255658;22;20003;-74
2022/11/14 09:39:08;;;;;;;2.67;1.40;;;5.50;86.70;;;;;;6253790;22;20014;-74
2022/11/14 09:53:06;;;;;;;;;;;5.70;86.30;;;;;;6217227;23;20019;-74
2022/11/14 09:55:33;;;;;;;;;;;5.80;86.30;;;;;;6220240;23;19962;-73
2022/11/14 09:58:05;;;;;;;1.00;0.60;;;5.80;86.20;;;;;;6168915;23;19908;-73
2022/11/14 10:00:54;;;;;;;0.85;0.68;;;5.90;86.10;;;;;;6218887;23;20070;-72
2022/11/14 10:03:46;;;;;;;2.08;1.00;;;6.00;86.10;;;;;;6185139;23;20063;-75
2022/11/14 10:07:03;;;;;;;1.30;0.90;;;6.00;86.00;;;;;;6159687;23;20087;-75
2022/11/14 10:14:00;;;;;;;1.35;0.80;;;6.20;85.90;;;;;;5986223;23;20023;-73
2022/11/14 10:17:26;;;;;;;1.30;0.88;;;6.40;85.80;;;;;;5902085;24;20447;-73
2022/11/14 10:28:40;;;;;;;1.42;0.90;;;6.50;85.50;;;;;;5788728;24;20454;-73
2022/11/14 10:31:39;;;;;;;1.92;1.00;;;6.70;85.40;;;;;;5711232;25;20025;-74
2022/11/14 10:34:12;;;;;;;1.48;0.82;;;6.70;85.30;;;;;;5727283;24;20028;-73
2022/11/14 10:37:27;;;;;;;1.92;0.95;;;6.80;85.20;;;;;;5711920;25;20020;-73
2022/11/14 10:40:01;;;;;;;2.22;1.20;;;6.90;85.30;;;;;;5799130;24;20026;-74
2022/11/14 10:42:46;;;;;;;2.67;1.30;;;6.90;85.20;;;;;;5787211;24;20031;-74
2022/11/14 10:46:03;;;;;;;1.85;1.05;;;7.00;85.20;;;;;;5789886;24;20168;-73
2022/11/14 10:57:45;;;;;;;2.13;1.02;;;7.10;85.20;;;;;;5978096;23;20076;-75
2022/11/14 11:04:59;;;;;;;1.80;1.00;;;7.20;85.10;;;;;;6029405;23;20095;-76
2022/11/14 11:13:01;;;;;;;2.20;1.20;;;7.40;85.00;;;;;;5986303;23;20016;-73
2022/11/14 11:15:30;;;;;;;2.67;1.20;;;7.50;85.00;;;;;;5959949;23;20350;-73
2022/11/14 11:18:01;;;;;;;2.28;1.20;;;7.60;85.00;;;;;;5932901;24;20021;-73
2022/11/14 11:37:41;;;;;;;2.40;1.27;;;8.20;84.20;;;;;;5863980;24;20033;-73
2022/11/14 11:41:05;;;;;;;2.13;1.23;;;8.40;84.20;;;;;;5877477;24;20017;-74
2022/11/14 12:23:02;;;;;;;3.08;1.63;;;8.40;85.10;;;;;;5947048;24;20039;-76
2022/11/14 13:22:37;;;;;;;2.83;1.58;;;8.60;85.80;;;;;;6250505;22;20507;-75
2022/11/14 13:25:20;;;;;;;2.58;1.52;;;8.60;85.90;;;;;;6250476;23;20035;-75
2022/11/14 13:27:47;;;;;;;2.25;1.30;;;8.60;85.80;;;;;;6251240;23;20015;-74
2022/11/14 13:30:13;;;;;;;2.83;1.70;;;8.60;85.70;;;;;;6224637;23;20016;-74
2022/11/14 13:32:55;;;;;;;3.17;1.70;;;8.50;85.90;;;;;;6250421;23;20019;-73
2022/11/14 13:35:51;;;;;;;1.85;1.20;;;8.50;86.00;;;;;;6225179;23;20309;-74
2022/11/14 13:38:33;;;;;;;3.45;1.70;;;8.50;86.10;;;;;;6252544;22;20298;-74
2022/11/14 13:41:29;;;;;;;2.75;1.63;;;8.50;86.10;;;;;;6247053;23;20042;-74
2022/11/14 13:44:25;;;;;;;2.45;1.42;;;8.50;86.10;;;;;;6251203;23;20153;-73
2022/11/14 13:47:13;;;;;;;1.95;1.42;;;8.50;86.20;;;;;;6250511;23;20442;-75
2022/11/14 13:49:58;;;;;;;1.80;1.23;;;8.50;86.20;;;;;;6251712;22;20040;-76
2022/11/14 14:00:46;;;;;;;2.70;1.50;;;8.50;86.30;;;;;;6035420;23;20046;-75
2022/11/14 14:18:31;;;;;;;1.92;1.00;;;8.40;86.20;;;;;;5818185;24;20341;-74
2022/11/14 14:21:04;;;;;;;1.98;1.23;;;8.40;86.20;;;;;;5793639;24;20019;-76
2022/11/14 14:23:57;;;;;;;1.60;1.13;;;8.40;86.30;;;;;;5798900;24;20023;-74
2022/11/14 14:26:38;;;;;;;2.28;1.30;;;8.50;86.40;;;;;;5790290;24;20087;-74
2022/11/14 14:29:38;;;;;;;2.55;1.33;;;8.50;86.40;;;;;;5823384;24;20050;-74
2022/11/14 14:32:11;;;;;;;1.83;1.20;;;8.50;86.50;;;;;;5965897;24;20445;-73
2022/11/14 14:34:36;;;;;;;1.35;0.93;;;8.50;86.50;;;;;;5979682;24;20040;-73
2022/11/14 14:37:02;;;;;;;2.72;1.17;;;8.40;86.40;;;;;;5968083;24;20350;-72
2022/11/14 14:39:28;;;;;;;2.63;1.45;;;8.40;86.40;;;;;;5951950;24;20044;-72
2022/11/14 14:41:56;;;;;;;2.05;1.13;;;8.40;86.40;;;;;;5952373;23;20025;-72
2022/11/14 14:44:27;;;;;;;2.30;1.30;;;8.40;86.50;;;;;;6093448;23;20432;-72
2022/11/14 14:46:53;;;;;;;2.13;1.20;;;8.40;86.50;;;;;;6064636;23;20079;-72
2022/11/14 14:49:26;;;;;;;2.22;1.30;;;8.40;86.50;;;;;;6092292;23;20007;-72
2022/11/14 14:51:52;;;;;;;2.15;1.30;;;8.50;86.60;;;;;;6093715;23;20089;-72
2022/11/14 14:54:21;;;;;;;2.38;1.27;;;8.40;86.60;;;;;;6125358;23;20446;-72
2022/11/14 14:56:59;;;;;;;2.10;1.13;;;8.40;86.60;;;;;;6243338;23;20388;-73
2022/11/14 14:59:27;;;;;;;1.25;1.00;;;8.50;86.60;;;;;;6244792;23;20011;-72
2022/11/14 15:01:54;;;;;;;2.08;1.20;;;8.40;86.60;;;;;;6240073;23;20015;-72
2022/11/14 15:04:22;;;;;;;2.22;1.10;;;8.40;86.70;;;;;;6243387;23;20091;-72
2022/11/14 15:06:48;;;;;;;2.38;1.35;;;8.40;86.70;;;;;;6245529;22;20015;-72
2022/11/14 15:09:19;;;;;;;2.42;1.20;;;8.40;86.70;;;;;;6218039;23;20321;-72
2022/11/14 15:11:49;;;;;;;2.60;1.17;;;8.40;86.70;;;;;;6244886;22;20008;-72
2022/11/14 15:14:25;;;;;;;1.67;1.05;;;8.40;86.60;;;;;;6242666;23;20455;-72
2022/11/14 15:16:52;;;;;;;1.85;1.20;;;8.50;86.70;;;;;;6245518;22;20015;-72
2022/11/14 15:19:22;;;;;;;2.20;1.23;;;8.40;86.60;;;;;;6218327;23;20011;-72
2022/11/14 15:22:04;;;;;;;1.00;0.90;;;8.50;86.70;;;;;;6243536;23;20502;-72
2022/11/14 15:24:30;;;;;;;1.23;0.98;;;8.40;86.70;;;;;;6244802;22;20011;-72
2022/11/14 15:26:56;;;;;;;1.50;1.10;;;8.50;86.80;;;;;;6245024;22;20008;-72
2022/11/14 15:29:26;;;;;;;1.52;1.10;;;8.50;86.70;;;;;;6244591;22;20011;-72
2022/11/14 15:31:55;;;;;;;1.35;1.05;;;8.50;86.70;;;;;;6245488;22;20008;-72
2022/11/14 15:34:26;;;;;;;1.85;1.10;;;8.40;86.70;;;;;;6245439;22;20432;-72
2022/11/14 15:37:12;;;;;;;;;;;8.40;86.80;;;;;;6246099;22;20007;-72
2022/11/14 15:39:38;;;;;;;0.93;0.88;;;8.40;86.80;;;;;;6244765;23;19915;-73
2022/11/14 15:42:16;;;;;;;1.77;1.00;;;8.30;86.80;;;;;;6245421;22;20008;-72
2022/11/14 15:44:42;;;;;;;1.25;0.85;;;8.30;86.90;;;;;;6243826;23;20062;-73
2022/11/14 15:47:12;;;;;;;0.75;0.75;;;8.20;87.00;;;;;;6243177;23;20012;-72
2022/11/14 15:49:38;;;;;;;1.73;1.10;;;8.20;87.20;;;;;;6244710;23;20070;-72
2022/11/14 15:52:04;;;;;;;1.60;1.02;;;8.10;87.30;;;;;;6245366;22;20277;-72
2022/11/14 15:54:32;;;;;;;1.42;1.10;;;8.10;87.40;;;;;;6245405;22;20004;-73
2022/11/14 15:57:01;;;;;;;1.23;0.90;;;8.20;87.50;;;;;;6243151;23;20008;-73
2022/11/14 15:59:29;;;;;;;1.73;1.00;;;8.10;87.40;;;;;;6244883;22;20046;-72
2022/11/14 16:02:03;;;;;;;1.80;1.10;;;8.10;87.50;;;;;;6244808;22;20011;-72
2022/11/14 16:04:32;;;;;;;2.42;1.27;;;8.10;87.40;;;;;;6245443;22;20014;-72
2022/11/14 16:06:58;;;;;;;1.77;1.20;;;8.10;88.00;;;;;;6244656;22;19996;-73
2022/11/14 16:09:23;;;;;;;2.67;1.40;;;8.10;87.40;;;;;;6244750;22;20035;-72
2022/11/14 16:11:49;;;;;;;1.77;1.20;;;8.10;87.30;;;;;;6245207;22;20154;-72
2022/11/14 16:14:15;;;;;;;1.33;1.02;;;8.00;87.20;;;;;;6244626;22;20004;-72
2022/11/14 16:16:40;;;;;;;1.98;1.20;;;8.10;87.30;;;;;;6244776;22;20008;-72
2022/11/14 16:19:07;;;;;;;1.35;1.00;;;8.10;87.40;;;;;;6244686;22;20339;-72
2022/11/14 16:21:33;;;;;;;1.67;1.10;;;8.00;87.40;;;;;;6244731;22;20019;-72
2022/11/14 16:24:00;;;;;;;0.88;0.80;;;8.10;87.50;;;;;;6244494;22;20046;-72
2022/11/14 16:26:25;;;;;;;1.65;1.00;;;7.90;87.50;;;;;;6243006;23;20377;-72
2022/11/14 16:28:51;;;;;;;1.95;1.20;;;8.00;87.50;;;;;;6242977;23;20007;-72
2022/11/14 16:31:17;;;;;;;1.90;0.90;;;7.90;87.50;;;;;;6239464;23;20340;-72
2022/11/14 16:33:43;;;;;;;1.88;1.20;;;7.80;87.50;;;;;;6217507;23;20008;-72
2022/11/14 16:36:10;;;;;;;1.00;0.88;;;7.80;87.60;;;;;;6244360;22;20008;-72
2022/11/14 16:38:37;;;;;;;2.10;1.20;;;7.70;87.60;;;;;;6244444;22;20012;-72
2022/11/14 16:41:07;;;;;;;1.52;1.10;;;7.70;87.70;;;;;;6242722;23;20008;-72
2022/11/14 16:43:32;;;;;;;1.58;1.00;;;7.60;87.80;;;;;;6217895;23;20015;-72
2022/11/14 16:46:03;;;;;;;1.45;1.13;;;7.60;87.90;;;;;;6244677;22;20012;-72
2022/11/14 16:48:29;;;;;;;2.23;1.13;;;7.60;87.90;;;;;;6244287;22;20008;-72
2022/11/14 16:50:54;;;;;;;1.70;1.10;;;7.50;87.80;;;;;;6242358;23;20519;-72